AAL203 KSAN-KSLC
Flight info
| Callsign | AAL203 |
|---|---|
| Flight time | N/A |
| Altitude | 39000 |
| Route | MTBAL DCT CABIC Q73 WINEN DCT MLF |
| Aircraft | B77W/H-SDE1E2E3FGHIJ2J3J4J5M1RWXY/LB1D1 |
Departure
| Time | 2026-05-05 15:39 |
|---|---|
| Airport | San Diego International Airport (KSAN) |
Arrival
| Time | N/A |
|---|---|
| Airport | Salt Lake City International Airport (KSLC) |
| Time | Latitude | Longitude | Altitude | Speed | Heading |
|---|---|---|---|---|---|
| 2026-05-05 15:09 | 32.73276 | -117.20709 | 29 ft | 0 kts | 192° |
| 2026-05-05 15:26 | 32.73284 | -117.20707 | 29 ft | 4 kts | 192° |
| 2026-05-05 15:26 | 32.73311 | -117.20700 | 27 ft | 4 kts | 191° |
| 2026-05-05 15:26 | 32.73337 | -117.20694 | 26 ft | 4 kts | 190° |
| 2026-05-05 15:27 | 32.73362 | -117.20689 | 32 ft | 3 kts | 185° |
| 2026-05-05 15:27 | 32.73377 | -117.20689 | 29 ft | 2 kts | 169° |
| 2026-05-05 15:27 | 32.73388 | -117.20693 | 31 ft | 2 kts | 132° |
| 2026-05-05 15:27 | 32.73394 | -117.20705 | 31 ft | 2 kts | 101° |
| 2026-05-05 15:28 | 32.73394 | -117.20710 | 31 ft | 0 kts | 98° |
| 2026-05-05 15:28 | 32.73394 | -117.20709 | 31 ft | 0 kts | 97° |
| 2026-05-05 15:29 | 32.73395 | -117.20703 | 31 ft | 4 kts | 89° |
| 2026-05-05 15:30 | 32.73449 | -117.20658 | 31 ft | 14 kts | 5° |
| 2026-05-05 15:30 | 32.73545 | -117.20646 | 27 ft | 14 kts | 15° |
| 2026-05-05 15:30 | 32.73601 | -117.20558 | 26 ft | 14 kts | 78° |
| 2026-05-05 15:30 | 32.73605 | -117.20442 | 27 ft | 14 kts | 94° |
| 2026-05-05 15:31 | 32.73582 | -117.20328 | 27 ft | 14 kts | 106° |
| 2026-05-05 15:31 | 32.73554 | -117.20216 | 30 ft | 14 kts | 106° |
| 2026-05-05 15:31 | 32.73528 | -117.20103 | 30 ft | 14 kts | 105° |
| 2026-05-05 15:31 | 32.73501 | -117.19990 | 30 ft | 14 kts | 105° |
| 2026-05-05 15:32 | 32.73475 | -117.19878 | 32 ft | 14 kts | 105° |
| 2026-05-05 15:32 | 32.73447 | -117.19760 | 31 ft | 15 kts | 105° |
| 2026-05-05 15:32 | 32.73418 | -117.19636 | 31 ft | 16 kts | 106° |
| 2026-05-05 15:32 | 32.73388 | -117.19512 | 32 ft | 16 kts | 106° |
| 2026-05-05 15:33 | 32.73357 | -117.19389 | 30 ft | 16 kts | 106° |
| 2026-05-05 15:33 | 32.73325 | -117.19256 | 28 ft | 17 kts | 106° |
| 2026-05-05 15:33 | 32.73291 | -117.19120 | 30 ft | 17 kts | 107° |
| 2026-05-05 15:33 | 32.73254 | -117.18970 | 31 ft | 22 kts | 106° |
| 2026-05-05 15:34 | 32.73211 | -117.18793 | 33 ft | 22 kts | 106° |
| 2026-05-05 15:34 | 32.73168 | -117.18615 | 34 ft | 22 kts | 106° |
| 2026-05-05 15:34 | 32.73125 | -117.18438 | 32 ft | 22 kts | 106° |
| 2026-05-05 15:34 | 32.73082 | -117.18261 | 31 ft | 22 kts | 106° |
| 2026-05-05 15:35 | 32.73038 | -117.18084 | 28 ft | 22 kts | 106° |
| 2026-05-05 15:35 | 32.72997 | -117.17909 | 28 ft | 22 kts | 105° |
| 2026-05-05 15:35 | 32.72949 | -117.17763 | 28 ft | 14 kts | 115° |
| 2026-05-05 15:35 | 32.72952 | -117.17679 | 28 ft | 0 kts | 72° |
| 2026-05-05 15:37 | 32.72953 | -117.17676 | 28 ft | 3 kts | 72° |
| 2026-05-05 15:38 | 32.72961 | -117.17646 | 29 ft | 4 kts | 70° |
| 2026-05-05 15:38 | 32.72990 | -117.17609 | 30 ft | 7 kts | 20° |
| 2026-05-05 15:38 | 32.73031 | -117.17632 | 30 ft | 7 kts | 298° |
| 2026-05-05 15:38 | 32.73035 | -117.17650 | 29 ft | 4 kts | 286° |
| 2026-05-05 15:39 | 32.73139 | -117.18077 | 28 ft | 113 kts | 286° |
| 2026-05-05 15:39 | 32.73453 | -117.19389 | 311 ft | 200 kts | 287° |
| 2026-05-05 15:39 | 32.73844 | -117.21008 | 1780 ft | 209 kts | 286° |
| 2026-05-05 15:39 | 32.74257 | -117.22710 | 2634 ft | 220 kts | 285° |
| 2026-05-05 15:40 | 32.74685 | -117.24471 | 3580 ft | 226 kts | 285° |
| 2026-05-05 15:40 | 32.75123 | -117.26281 | 4596 ft | 230 kts | 285° |
| 2026-05-05 15:40 | 32.75567 | -117.28114 | 5632 ft | 232 kts | 285° |
| 2026-05-05 15:40 | 32.76018 | -117.29976 | 6575 ft | 237 kts | 285° |
| 2026-05-05 15:41 | 32.76463 | -117.31872 | 7522 ft | 237 kts | 281° |
| 2026-05-05 15:41 | 32.76384 | -117.33830 | 8353 ft | 244 kts | 251° |
| 2026-05-05 15:41 | 32.75483 | -117.35510 | 9325 ft | 249 kts | 226° |
| 2026-05-05 15:41 | 32.73994 | -117.36602 | 10233 ft | 260 kts | 201° |
| 2026-05-05 15:42 | 32.72165 | -117.36797 | 11030 ft | 273 kts | 173° |
| 2026-05-05 15:42 | 32.70399 | -117.35916 | 11843 ft | 283 kts | 145° |
| 2026-05-05 15:42 | 32.69021 | -117.34222 | 12691 ft | 289 kts | 129° |
| 2026-05-05 15:42 | 32.67844 | -117.32264 | 13573 ft | 293 kts | 127° |
| 2026-05-05 15:43 | 32.66667 | -117.30277 | 14415 ft | 296 kts | 127° |
| 2026-05-05 15:43 | 32.65453 | -117.28290 | 15225 ft | 299 kts | 128° |
| 2026-05-05 15:43 | 32.64207 | -117.26291 | 16044 ft | 303 kts | 129° |
| 2026-05-05 15:43 | 32.63132 | -117.24131 | 16734 ft | 311 kts | 108° |
| 2026-05-05 15:44 | 32.62768 | -117.21555 | 17150 ft | 327 kts | 96° |
| 2026-05-05 15:44 | 32.62545 | -117.18754 | 17350 ft | 355 kts | 96° |
| 2026-05-05 15:44 | 32.62308 | -117.15737 | 17575 ft | 381 kts | 96° |
| 2026-05-05 15:44 | 32.62044 | -117.12500 | 17787 ft | 407 kts | 96° |
| 2026-05-05 15:45 | 32.61751 | -117.09062 | 18110 ft | 428 kts | 96° |
| 2026-05-05 15:45 | 32.61439 | -117.05506 | 18719 ft | 439 kts | 97° |
| 2026-05-05 15:45 | 32.61114 | -117.01875 | 19426 ft | 446 kts | 97° |
| 2026-05-05 15:45 | 32.60783 | -116.98201 | 20215 ft | 450 kts | 97° |
| 2026-05-05 15:46 | 32.60560 | -116.95745 | 20746 ft | 453 kts | 97° |
| 2026-05-05 15:46 | 32.60261 | -116.92010 | 21495 ft | 459 kts | 93° |
| 2026-05-05 15:46 | 32.60584 | -116.88223 | 22095 ft | 467 kts | 76° |
| 2026-05-05 15:46 | 32.61503 | -116.84513 | 22902 ft | 469 kts | 73° |
| 2026-05-05 15:47 | 32.62625 | -116.80901 | 23540 ft | 471 kts | 61° |
| 2026-05-05 15:47 | 32.64554 | -116.77743 | 23986 ft | 477 kts | 44° |
| 2026-05-05 15:47 | 32.67123 | -116.75235 | 24448 ft | 480 kts | 29° |
| 2026-05-05 15:47 | 32.70134 | -116.73569 | 24848 ft | 479 kts | 18° |
| 2026-05-05 15:48 | 32.73276 | -116.72126 | 25207 ft | 489 kts | 17° |
| 2026-05-05 15:48 | 32.76465 | -116.70664 | 25772 ft | 493 kts | 18° |
| 2026-05-05 15:48 | 32.79663 | -116.69164 | 26402 ft | 496 kts | 18° |
| 2026-05-05 15:48 | 32.82887 | -116.67618 | 26869 ft | 502 kts | 19° |
| 2026-05-05 15:49 | 32.86144 | -116.66032 | 27262 ft | 510 kts | 19° |
| 2026-05-05 15:49 | 32.89446 | -116.64410 | 27677 ft | 517 kts | 19° |
| 2026-05-05 15:49 | 32.92786 | -116.62763 | 28116 ft | 522 kts | 18° |
| 2026-05-05 15:49 | 32.96159 | -116.61100 | 28549 ft | 528 kts | 18° |
| 2026-05-05 15:50 | 32.99571 | -116.59422 | 28924 ft | 533 kts | 18° |
| 2026-05-05 15:50 | 33.03020 | -116.57711 | 29291 ft | 539 kts | 19° |
| 2026-05-05 15:50 | 33.06477 | -116.55929 | 29640 ft | 544 kts | 19° |
| 2026-05-05 15:50 | 33.09984 | -116.54088 | 29674 ft | 555 kts | 19° |
| 2026-05-05 15:51 | 33.13520 | -116.52215 | 30102 ft | 558 kts | 19° |
| 2026-05-05 15:51 | 33.17067 | -116.50334 | 30573 ft | 557 kts | 19° |
| 2026-05-05 15:51 | 33.20600 | -116.48469 | 31124 ft | 555 kts | 19° |
| 2026-05-05 15:51 | 33.24091 | -116.46635 | 31535 ft | 556 kts | 18° |
| 2026-05-05 15:52 | 33.27638 | -116.44776 | 31922 ft | 557 kts | 18° |
| 2026-05-05 15:52 | 33.31164 | -116.42933 | 32698 ft | 546 kts | 19° |
| 2026-05-05 15:52 | 33.34626 | -116.41103 | 33335 ft | 543 kts | 19° |
| 2026-05-05 15:52 | 33.38068 | -116.39202 | 33482 ft | 549 kts | 25° |
| 2026-05-05 15:53 | 33.41193 | -116.36487 | 33535 ft | 564 kts | 44° |
| 2026-05-05 15:53 | 33.43619 | -116.32801 | 33832 ft | 564 kts | 56° |
| 2026-05-05 15:53 | 33.45788 | -116.28882 | 34169 ft | 565 kts | 56° |
| 2026-05-05 15:53 | 33.47981 | -116.24975 | 34498 ft | 564 kts | 55° |
| 2026-05-05 15:54 | 33.50225 | -116.21119 | 34747 ft | 565 kts | 54° |
| 2026-05-05 15:54 | 33.52512 | -116.17284 | 35110 ft | 564 kts | 54° |
| 2026-05-05 15:54 | 33.54802 | -116.13480 | 35556 ft | 561 kts | 54° |
| 2026-05-05 15:54 | 33.57077 | -116.09694 | 36003 ft | 558 kts | 54° |
| 2026-05-05 15:55 | 33.59330 | -116.05924 | 36462 ft | 555 kts | 54° |
| 2026-05-05 15:55 | 33.61633 | -116.02222 | 36873 ft | 552 kts | 49° |
| 2026-05-05 15:55 | 33.64193 | -115.98805 | 37385 ft | 547 kts | 44° |
| 2026-05-05 15:55 | 33.66854 | -115.95597 | 38069 ft | 538 kts | 43° |
| 2026-05-05 15:56 | 33.69480 | -115.92407 | 38440 ft | 538 kts | 45° |
| 2026-05-05 15:56 | 33.72058 | -115.89127 | 38579 ft | 541 kts | 46° |
| 2026-05-05 15:56 | 33.74710 | -115.85921 | 38722 ft | 541 kts | 39° |
| 2026-05-05 15:56 | 33.77662 | -115.83128 | 38864 ft | 540 kts | 32° |
| 2026-05-05 15:57 | 33.80838 | -115.80726 | 38902 ft | 539 kts | 25° |
| 2026-05-05 15:57 | 33.87662 | -115.77204 | 38927 ft | 530 kts | 16° |
| 2026-05-05 15:58 | 33.94462 | -115.74021 | 38949 ft | 525 kts | 18° |
| 2026-05-05 15:58 | 34.01246 | -115.70818 | 38933 ft | 521 kts | 18° |
| 2026-05-05 15:59 | 34.07978 | -115.67651 | 38927 ft | 518 kts | 17° |
| 2026-05-05 15:59 | 34.14689 | -115.64484 | 38922 ft | 517 kts | 18° |
| 2026-05-05 16:00 | 34.21398 | -115.61156 | 38938 ft | 528 kts | 23° |
| 2026-05-05 16:00 | 34.27792 | -115.56602 | 38929 ft | 536 kts | 31° |
| 2026-05-05 16:01 | 34.34139 | -115.51811 | 38920 ft | 538 kts | 27° |
| 2026-05-05 16:01 | 34.40897 | -115.48044 | 38901 ft | 532 kts | 15° |
| 2026-05-05 16:02 | 34.47913 | -115.45281 | 38920 ft | 527 kts | 14° |
| 2026-05-05 16:02 | 34.54821 | -115.42561 | 38890 ft | 517 kts | 15° |
| 2026-05-05 16:03 | 34.61639 | -115.39803 | 38911 ft | 516 kts | 15° |
| 2026-05-05 16:03 | 34.68444 | -115.37025 | 38907 ft | 516 kts | 15° |
| 2026-05-05 16:04 | 34.75263 | -115.34242 | 38919 ft | 516 kts | 15° |
| 2026-05-05 16:04 | 34.82154 | -115.31837 | 38913 ft | 513 kts | 9° |
| 2026-05-05 16:05 | 34.89098 | -115.30021 | 38927 ft | 515 kts | 8° |
| 2026-05-05 16:05 | 34.96124 | -115.28182 | 38927 ft | 517 kts | 8° |
| 2026-05-05 16:06 | 35.03154 | -115.26279 | 38922 ft | 518 kts | 9° |
| 2026-05-05 16:06 | 35.10188 | -115.24362 | 38923 ft | 518 kts | 9° |
| 2026-05-05 16:07 | 35.17157 | -115.22138 | 38924 ft | 519 kts | 15° |
| 2026-05-05 16:07 | 35.23974 | -115.19254 | 38940 ft | 518 kts | 17° |
| 2026-05-05 16:08 | 35.30776 | -115.16345 | 38935 ft | 517 kts | 16° |
| 2026-05-05 16:08 | 35.37570 | -115.13502 | 38919 ft | 515 kts | 16° |
| 2026-05-05 16:09 | 35.44342 | -115.10676 | 38919 ft | 513 kts | 16° |
| 2026-05-05 16:09 | 35.50751 | -115.06835 | 38938 ft | 515 kts | 33° |
| 2026-05-05 16:10 | 35.56110 | -115.01029 | 38904 ft | 515 kts | 48° |
| 2026-05-05 16:10 | 35.60803 | -114.94372 | 38905 ft | 516 kts | 49° |
| 2026-05-05 16:11 | 35.65570 | -114.87761 | 38922 ft | 518 kts | 48° |
| 2026-05-05 16:12 | 35.75262 | -114.74530 | 38880 ft | 522 kts | 48° |
| 2026-05-05 16:13 | 35.87431 | -114.57808 | 38870 ft | 525 kts | 48° |
| 2026-05-05 16:13 | 35.92270 | -114.51136 | 38844 ft | 524 kts | 48° |
| 2026-05-05 16:14 | 36.01967 | -114.37724 | 38805 ft | 522 kts | 48° |
| 2026-05-05 16:15 | 36.12485 | -114.25437 | 38826 ft | 521 kts | 31° |
| 2026-05-05 16:16 | 36.24866 | -114.16112 | 38823 ft | 522 kts | 30° |
| 2026-05-05 16:17 | 36.34141 | -114.09011 | 38838 ft | 523 kts | 30° |
| 2026-05-05 16:18 | 36.43541 | -114.02176 | 38840 ft | 521 kts | 22° |
| 2026-05-05 16:19 | 36.53499 | -113.96802 | 38846 ft | 520 kts | 21° |
| 2026-05-05 16:19 | 36.63429 | -113.91352 | 38854 ft | 520 kts | 22° |
| 2026-05-05 16:20 | 36.76751 | -113.84686 | 38855 ft | 516 kts | 18° |
| 2026-05-05 16:22 | 36.93475 | -113.76686 | 38900 ft | 513 kts | 19° |
| 2026-05-05 16:23 | 37.06834 | -113.70608 | 38909 ft | 507 kts | 10° |